• Join FlightAware (Why Join?)
  • Login
  • US Flag 
08:18AM EDT


 

Airport Tracker/Info


-or-


 

Live Flight TrackerFlight Track Log ✈ EVA716 ✈ 07-Oct-2013 ✈ RCTP / TPE - ZBAA / PEK

Flight Track Log - Related Links

Times and Time Zones

All times are in EDT time to prevent confusion due to time zone crossing. See the EVA716 flight status page for this flight to view local times or setup timezone preferences in your user account.

Time Position Orientation Groundspeed Altitude Reporting Facility
EDT Latitude Longitude Course Direction KTS MPH feet Rate Location/Type
04:45AM 25.0710 121.2360 42° Northeast 155 178  Level FlightAware
04:46AM 25.0770 121.2440 50° Northeast 175 201 2,220 Level FlightAware
04:46AM 25.0890 121.2590 49° Northeast 194 223 1,200 3,000 Climbing FlightAware
04:46AM 25.0990 121.2710 47° Northeast 195 224 1,800 1,620 Climbing FlightAware
04:47AM 25.1110 121.2870 50° Northeast 217 250 2,200 1,500 Climbing FlightAware
04:47AM 25.1260 121.3050 47° Northeast 249 287 2,800 2,100 Climbing FlightAware
04:47AM 25.1490 121.3240 37° Northeast 269 310 3,800 2,580 Climbing FlightAware
04:48AM 25.1600 121.3330 37° Northeast 273 314 4,400 2,520 Climbing FlightAware
04:48AM 25.1880 121.3540 34° Northeast 303 349 5,300 2,760 Climbing FlightAware
04:48AM 25.2120 121.3710 33° Northeast 310 357 6,400 3,300 Climbing FlightAware
04:49AM 25.2360 121.3890 34° Northeast 316 364 7,500 3,120 Climbing FlightAware
04:49AM 25.2610 121.4080 35° Northeast 327 376 8,500 2,160 Climbing FlightAware
04:49AM 25.2920 121.4310 34° Northeast 355 409 9,100 1,860 Climbing FlightAware
04:50AM 25.3210 121.4530 34° Northeast 369 425 9,900 2,760 Climbing FlightAware
04:50AM 25.3700 121.4890 34° Northeast 377 434 11,600 2,820 Climbing FlightAware
04:51AM 25.4220 121.5280 34° Northeast 388 447 13,200 2,400 Climbing FlightAware
04:51AM 25.4770 121.5690 34° Northeast 404 465 14,500 2,280 Climbing FlightAware
04:52AM 25.5280 121.6070 34° Northeast 413 475 15,800 2,340 Climbing FlightAware
04:53AM 25.5870 121.6520 35° Northeast 423 487 17,200 2,160 Climbing FlightAware
04:53AM 25.6460 121.6970 35° Northeast 433 498 18,500 1,740 Climbing FlightAware
04:54AM 25.7070 121.7430 34° Northeast 447 514 19,300 1,740 Climbing FlightAware
04:54AM 25.7620 121.7840 34° Northeast 454 522 20,500 1,980 Climbing FlightAware
04:55AM 25.8240 121.8310 34° Northeast 464 534 21,600 1,800 Climbing FlightAware
04:56AM 25.8820 121.8780 36° Northeast 472 543 22,600 1,800 Climbing FlightAware
04:56AM 25.9430 121.9280 36° Northeast 482 555 23,600 1,800 Climbing FlightAware
04:57AM 26.0090 121.9820 36° Northeast 482 555 24,700 1,080 Climbing FlightAware
04:57AM 26.0790 122.0380 36° Northeast 493 567 25,000 240 Climbing FlightAware
04:58AM 26.1440 122.0880 35° Northeast 501 577 25,000  Level FlightAware
04:58AM 26.2110 122.1400 35° Northeast 500 575 25,000  Level FlightAware
04:59AM 26.2740 122.1890 35° Northeast 501 577 25,000  Level FlightAware
05:00AM 26.3380 122.2400 36° Northeast 502 578 25,000  Level FlightAware
05:00AM 26.4070 122.2940 35° Northeast 501 577 25,000  Level FlightAware
05:01AM 26.4710 122.3440 35° Northeast 501 577 25,000  Level FlightAware
05:01AM 26.5380 122.3970 35° Northeast 500 575 25,000  Level FlightAware
05:02AM 26.6080 122.4530 36° Northeast 498 573 25,000  Level FlightAware
05:03AM 26.6690 122.5010 35° Northeast 498 573 25,000  Level FlightAware
05:03AM 26.7350 122.5530 35° Northeast 499 574 25,000  Level FlightAware
05:04AM 26.8020 122.6060 35° Northeast 499 574 25,000  Level FlightAware
05:04AM 26.8560 122.6480 35° Northeast 499 574 25,000  Level FlightAware
05:05AM 26.9140 122.6940 35° Northeast 499 574 25,000  Level FlightAware
05:06AM 26.9720 122.7390 35° Northeast 499 574 25,000  Level FlightAware
05:06AM 27.0300 122.7850 35° Northeast 499 574 25,000  Level FlightAware
05:07AM 27.0880 122.8300 35° Northeast 499 574 25,000  Level FlightAware
05:09AM 27.2636 122.7575 340° North  Level Estimated
05:09AM 27.4260 122.8070 340° North 484 557 25,000  Level FlightAware
05:10AM 27.4390 122.7280 281° West 473 544 25,000  Level FlightAware
05:10AM 27.4390 122.6760 270° West 473 544 25,000  Level FlightAware
05:11AM 27.4390 122.5780 270° West 473 544 25,000  Level FlightAware
05:11AM 27.4390 122.4890 270° West 472 543 25,000  Level FlightAware
05:12AM 27.4430 122.4040 273° West 473 544 25,000  Level FlightAware
05:12AM 27.4560 122.3190 280° West 472 543 25,000  Level FlightAware
05:13AM 27.4740 122.2170 281° West 472 543 25,000 -240 Level FlightAware
05:14AM 27.4930 122.1380 285° West 482 555 24,700 -420 Descending FlightAware
05:14AM 27.5280 122.0710 301° West 486 559 24,600 -120 Descending FlightAware
05:15AM 27.5630 122.0000 299° West 486 559 24,600  Level FlightAware
05:15AM 27.5960 121.9320 299° West 486 559 24,600  Level FlightAware
05:16AM 27.5940 121.8230 269° West 476 548 24,600  Level FlightAware
05:17AM 27.6070 121.7450 281° West 476 548 24,600  Level FlightAware
05:17AM 27.6240 121.6460 281° West 477 549 24,600  Level FlightAware
05:18AM 27.6370 121.5690 281° West 476 548 24,600  Level FlightAware
05:18AM 27.6530 121.4830 282° West 475 547 24,600  Level FlightAware
05:19AM 27.6680 121.3960 281° West 477 549 24,600  Level FlightAware
05:19AM 27.6820 121.3190 282° West 478 550 24,600  Level FlightAware
05:20AM 27.6980 121.2260 281° West 477 549 24,600  Level FlightAware
05:21AM 27.7130 121.1420 281° West 477 549 24,600  Level FlightAware
05:21AM 27.7270 121.0620 281° West 478 550 24,600  Level FlightAware
05:22AM 27.7420 120.9740 281° West 480 552 24,600  Level FlightAware
05:22AM 27.7560 120.8900 281° West 481 554 24,600  Level FlightAware
05:23AM 27.7710 120.8040 281° West 483 556 24,600  Level FlightAware
05:24AM 27.7870 120.7130 281° West 484 557 24,600  Level FlightAware
05:24AM 27.8030 120.6370 283° West 484 557 24,600  Level FlightAware
05:25AM 27.8320 120.5430 289° West 488 562 24,600  Level FlightAware
05:25AM 27.8540 120.4770 291° West 487 560 24,600  Level FlightAware
05:26AM 27.8870 120.3790 291° West 489 563 24,600  Level FlightAware
05:26AM 27.9140 120.2990 291° West 487 560 24,600  Level FlightAware
05:27AM 27.9430 120.2100 290° West 488 562 24,600  Level FlightAware
05:28AM 27.9650 120.1430 290° West 489 563 24,600  Level FlightAware
05:28AM 27.9990 120.0400 291° West 490 564 24,600  Level FlightAware
05:29AM 28.0330 119.9340 290° West 492 566 24,600  Level FlightAware
05:30AM 28.0570 119.8600 290° West 492 566 24,600  Level FlightAware
05:30AM 28.0810 119.7860 290° West 492 566 24,600  Level FlightAware
05:31AM 28.1050 119.7120 290° West 492 566 24,600  Level FlightAware
05:31AM 28.1290 119.6370 290° West 492 566 24,600 3,660 Level FlightAware
05:32AM 28.2510 119.6260 355° North 501 577 28,000 4,380 Climbing FlightAware
05:32AM 28.3280 119.6310 North 509 586 28,400 540 Climbing FlightAware
05:33AM 28.4180 119.6360 North 509 586 28,700 1,020 Climbing FlightAware
05:34AM 28.5170 119.6430 North 517 595 29,800 840 Climbing FlightAware
05:34AM 28.5940 119.6480 North 517 595 29,800 780 Level FlightAware
05:35AM 28.6950 119.6540 North 527 606 30,800 900 Climbing FlightAware
05:35AM 28.7800 119.6570 North 527 606 30,900 60 Climbing FlightAware
05:36AM 28.8540 119.6600 North 527 606 30,900  Level FlightAware
05:37AM 28.9290 119.6630 North 527 606 30,900 180 Level FlightAware
05:37AM 29.0340 119.6730 North 522 601 31,100 120 Climbing FlightAware
05:38AM 29.1370 119.6800 North 520 598 31,100  Level FlightAware
05:39AM 29.2650 119.6860 North 519 597 31,100  Level FlightAware
05:39AM 29.3400 119.6890 North 519 597 31,100  Level FlightAware
05:40AM 29.4160 119.6920 North 519 597 31,100  Level FlightAware
05:41AM 29.4890 119.6950 North 519 597 31,100  Level FlightAware
05:41AM 29.5650 119.6980 North 519 597 31,100  Level FlightAware
05:42AM 29.6380 119.7010 North 519 597 31,100  Level FlightAware
05:42AM 29.7110 119.7040 North 519 597 31,100  Level FlightAware
05:43AM 29.7870 119.7070 North 519 597 31,100  Level FlightAware
05:44AM 29.8620 119.7100 North 519 597 31,100  Level FlightAware
05:44AM 29.9360 119.7130 North 519 597 31,100  Level FlightAware
05:45AM 30.0090 119.7160 North 519 597 31,100  Level FlightAware
05:45AM 30.0850 119.7190 North 519 597 31,100  Level FlightAware
05:46AM 30.1580 119.7220 North 519 597 31,100  Level FlightAware
05:47AM 30.2320 119.7250 North 519 597 31,100  Level FlightAware
05:47AM 30.3050 119.7280 North 519 597 31,100  Level FlightAware
05:48AM 30.4000 120.1610 76° East 505 581 31,100  Level FlightAware
05:48AM 30.4720 120.1040 326° Northwest 497 572 31,100  Level FlightAware
05:49AM 30.5300 120.0580 326° Northwest 497 572 31,100 300 Level FlightAware
05:50AM 30.6160 119.9860 324° Northwest 499 574 31,500 420 Climbing FlightAware
05:50AM 30.6740 119.9400 326° Northwest 499 574 31,700 120 Climbing FlightAware
05:51AM 30.7320 119.8940 326° Northwest 499 574 31,700  Level FlightAware
05:51AM 30.7910 119.8480 326° Northwest 499 574 31,700  Level FlightAware
05:52AM 30.8490 119.8020 326° Northwest 499 574 31,700  Level FlightAware
05:53AM 30.9090 119.7550 326° Northwest 499 574 31,700  Level FlightAware
05:53AM 30.9680 119.7090 326° Northwest 499 574 31,700  Level FlightAware
05:54AM 31.0230 119.6650 326° Northwest 499 574 31,700  Level FlightAware
05:54AM 31.0820 119.6190 326° Northwest 499 574 31,700  Level FlightAware
05:55AM 31.1400 119.5730 326° Northwest 499 574 31,700  Level FlightAware
05:56AM 31.1990 119.5270 326° Northwest 499 574 31,700  Level FlightAware
05:56AM 31.2580 119.4810 326° Northwest 499 574 31,700  Level FlightAware
05:57AM 31.3160 119.4350 326° Northwest 499 574 31,700  Level FlightAware
05:57AM 31.3750 119.3880 326° Northwest 499 574 31,700  Level FlightAware
05:58AM 31.4330 119.3420 326° Northwest 499 574 31,700  Level FlightAware
05:59AM 31.4920 119.2960 326° Northwest 499 574 31,700  Level FlightAware
05:59AM 31.5520 119.2480 326° Northwest 499 574 31,700 -120 Level FlightAware
06:02AM 31.7842 119.1827 347° North  Level Estimated
06:03AM 31.8881 119.1534 347° North  Level Estimated
06:04AM 31.9920 119.1239 347° North  Level Estimated
06:05AM 32.0960 119.0945 346° North  Level Estimated
06:06AM 32.1999 119.0649 346° North  Level Estimated
06:07AM 32.3038 119.0353 346° North  Level Estimated
06:08AM 32.4077 119.0056 346° North  Level Estimated
06:09AM 32.5116 118.9759 346° North  Level Estimated
06:10AM 32.6155 118.9461 346° North  Level Estimated
06:11AM 32.7194 118.9162 346° North  Level Estimated
06:12AM 32.8232 118.8862 346° North  Level Estimated
06:13AM 32.9271 118.8562 346° North  Level Estimated
06:14AM 33.0310 118.8261 346° North  Level Estimated
06:15AM 33.1348 118.7959 346° North  Level Estimated
06:16AM 33.2387 118.7657 346° North  Level Estimated
06:17AM 33.3425 118.7354 346° North  Level Estimated
06:18AM 33.4464 118.7050 346° North  Level Estimated
06:19AM 33.5502 118.6745 346° North  Level Estimated
06:20AM 33.6540 118.6440 346° North  Level Estimated
06:21AM 33.7578 118.6134 346° North  Level Estimated
06:22AM 33.8616 118.5827 346° North  Level Estimated
06:23AM 33.9654 118.5520 346° North  Level Estimated
06:24AM 34.0692 118.5211 346° North  Level Estimated
06:25AM 34.1730 118.4902 346° North  Level Estimated
06:26AM 34.2768 118.4593 346° North  Level Estimated
06:27AM 34.3805 118.4282 346° North  Level Estimated
06:28AM 34.4843 118.3971 346° North  Level Estimated
06:29AM 34.5880 118.3659 346° North  Level Estimated
06:30AM 34.6918 118.3346 346° North  Level Estimated
06:31AM 34.7955 118.3032 346° North  Level Estimated
06:32AM 34.8992 118.2718 346° North  Level Estimated
06:33AM 35.0029 118.2402 346° North  Level Estimated
06:34AM 35.1067 118.2086 346° North  Level Estimated
06:35AM 35.2104 118.1770 346° North  Level Estimated
06:36AM 35.3140 118.1452 346° North  Level Estimated
06:36AM 36.4000 116.9700 346° North 514 592 27,600  Level FlightAware
06:36AM 36.4740 116.9540 350° North 517 595 27,600  Level FlightAware
06:37AM 36.5780 116.9320 350° North 519 597 27,600  Level FlightAware
06:37AM 36.6470 116.9170 350° North 520 598 27,600  Level FlightAware
06:38AM 36.7820 116.8880 350° North 517 595 27,600  Level FlightAware
06:39AM 36.8540 116.8730 351° North 510 587 27,600  Level FlightAware
06:40AM 36.9410 116.8540 350° North 509 586 27,600  Level FlightAware
06:40AM 37.0140 116.8380 350° North 509 586 27,600  Level FlightAware
06:41AM 37.0810 116.8230 350° North 509 586 27,600  Level FlightAware
06:41AM 37.1520 116.8070 350° North 509 586 27,600  Level FlightAware
06:42AM 37.2190 116.7930 351° North 509 586 27,600  Level FlightAware
06:43AM 37.2900 116.7770 350° North 509 586 27,600  Level FlightAware
06:43AM 37.3610 116.7610 350° North 509 586 27,600 -840 Level FlightAware
06:46AM 37.6154 116.7450 357° North  Level Estimated
06:47AM 37.7222 116.7383 357° North  Level Estimated
06:48AM 37.8289 116.7316 357° North  Level Estimated
06:49AM 37.9357 116.7248 357° North  Level Estimated
06:50AM 38.0424 116.7180 357° North  Level Estimated
06:51AM 38.1492 116.7112 357° North  Level Estimated
06:52AM 38.2559 116.7044 357° North  Level Estimated
06:53AM 38.3627 116.6976 357° North  Level Estimated
06:54AM 38.4694 116.6907 357° North  Level Estimated
06:55AM 38.5762 116.6838 357° North  Level Estimated
06:56AM 38.6829 116.6769 357° North  Level Estimated
06:57AM 38.7897 116.6700 357° North  Level Estimated
06:58AM 38.8964 116.6630 357° North  Level Estimated
06:59AM 39.0032 116.6560 357° North  Level Estimated
07:00AM 39.1099 116.6490 357° North  Level Estimated
07:01AM 39.2167 116.6420 357° North  Level Estimated
07:02AM 39.3234 116.6350 357° North  Level Estimated
07:03AM 39.4302 116.6280 357° North  Level Estimated
07:04AM 39.5369 116.6209 357° North  Level Estimated
07:05AM 39.6437 116.6138 357° North  Level Estimated
07:06AM 39.7504 116.6067 357° North  Level Estimated
07:07AM 39.8572 116.5995 357° North  Level Estimated
07:08AM 39.9639 116.5924 357° North  Level Estimated
07:09AM 40.0707 116.5852 357° North  Level Estimated
07:10AM 40.0801 116.5846 357° North  Level Estimated
07:11AM 40.0801 116.5846 288° West  Level Estimated
07:12AM 40.0801 116.5846 288° West  Level Estimated
07:13AM 40.0801 116.5846 288° West  Level Estimated
07:14AM 40.0801 116.5846 288° West  Level Estimated
07:14AM 39.9460 116.6350 288° West 178 205 2,000  Level FlightAware
07:14AM 39.9650 116.6320 353° North 178 205 2,000 -840 Level FlightAware
07:15AM 39.9460 116.6350 173° South 153 176 1,400 -1,380 Descending FlightAware
07:15AM 39.9960 116.6280 354° North 151 174 1,100 -420 Descending FlightAware
07:16AM 40.0170 116.6240 352° North 150 173 1,000 -180 Descending FlightAware
07:18AM 40.0801 116.5846 334° Northwest  Level Estimated
07:19AM 40.0801 116.5846 288° West  Level Estimated
07:20AM 40.0801 116.5846 288° West  Level Estimated
07:21AM 40.0801 116.5846 288° West  Level Estimated
07:22AM 40.0801 116.5846 288° West  Level Estimated
07:23AM 40.0801 116.5846 288° West  Level Estimated
07:24AM 40.0801 116.5846 288° West  Level Estimated
07:25AM 40.0801 116.5846 288° West  Level Estimated